This is the latest recevied weather packets stored in our database for station/object KC3JUG-13. If no packets are shown the sender has not sent any weather packets the latest 10 day(s).
| Time | Temp. | Humidity | Pressure | Rain* | Wind** | Luminosity | Snow |
|---|---|---|---|---|---|---|---|
| 1788542424 | 26.11° C | 77% | 1014.8 hPa | 0 mm | - | - | - |
| 1788541644 | 25.56° C | 78% | 1014.9 hPa | 0 mm | - | - | - |
| 1788540864 | 25.56° C | 80% | 1014.9 hPa | 0 mm | - | - | - |
| 1788540084 | 25.56° C | 79% | 1015.1 hPa | 0 mm | - | - | - |
| 1788539410 | 26.11° C | 77% | 1015.3 hPa | 0 mm | - | - | - |
| 1788539304 | 26.11° C | 77% | 1015.3 hPa | 0 mm | - | - | - |
| 1788538524 | 26.11° C | 79% | 1015.4 hPa | 0 mm | - | - | - |
| 1788537744 | 26.11° C | 79% | 1015.2 hPa | 0 mm | - | - | - |
| 1788536964 | 25.56° C | 81% | 1015.3 hPa | 0 mm | - | - | - |
| 1788536184 | 25.56° C | 80% | 1015.4 hPa | 0 mm | - | - | - |
| 1788535404 | 25° C | 80% | 1015.4 hPa | 0 mm | - | - | - |
| 1788534624 | 25° C | 80% | 1015.2 hPa | 0 mm | - | - | - |
| 1788533844 | 25° C | 81% | 1015.4 hPa | 0 mm | - | - | - |
| 1788533120 | 24.44° C | 82% | 1015.2 hPa | 0 mm | - | - | - |
| 1788533064 | 24.44° C | 82% | 1015.2 hPa | 0 mm | - | - | - |
| 1788532316 | 24.44° C | 83% | 1015.3 hPa | 0 mm | - | - | - |
| 1788532284 | 24.44° C | 83% | 1015.3 hPa | 0 mm | - | - | - |
| 1788531504 | 23.89° C | 84% | 1015.2 hPa | 0 mm | - | - | - |
| 1788530724 | 23.33° C | 86% | 1015.1 hPa | 0 mm | - | - | - |
| 1788529944 | 23.33° C | 86% | 1014.9 hPa | 0 mm | - | - | - |
| 1788529165 | 22.78° C | 89% | 1015.1 hPa | 0 mm | - | - | - |
| 1788528384 | 22.78° C | 90% | 1015.1 hPa | 0 mm | - | - | - |
| 1788527604 | 22.22° C | 91% | 1015.3 hPa | 0 mm | - | - | - |
| 1788526824 | 22.22° C | 91% | 1015.3 hPa | 0 mm | - | - | - |
| 1788526044 | 21.67° C | 90% | 1015.4 hPa | 0 mm | - | - | - |
* Rain latest hour (hover to see other rain measurements)
** Current wind speed in m/s (hover to see current wind gust speed)